Time;durP1;ratioP1;P1;durP2;ratioP2;P2;SDS_P1;SDS_P2;PMS_P1;PMS_P2;Temp;Humidity;BMP_temperature;BMP_pressure;BME280_temperature;BME280_humidity;BME280_pressure;Samples;Min_cycle;Max_cycle;Signal;HPM_P1;HPM_P2
2022/06/08 00:02:18;;;;;;;6.05;1.58;;;;;;;;;;4901672;29;20116;-78
2022/06/08 00:04:44;;;;;;;3.00;0.98;;;;;;;;;;4897738;29;20040;-78
2022/06/08 00:07:11;;;;;;;3.45;1.27;;;;;;;;;;4900903;29;20025;-78
2022/06/08 00:09:37;;;;;;;4.90;1.10;;;;;;;;;;4901342;29;20029;-78
2022/06/08 00:12:04;;;;;;;5.00;1.33;;;;;;;;;;4901598;29;20058;-78
2022/06/08 00:14:31;;;;;;;4.70;1.40;;;;;;;;;;4901468;29;20024;-78
2022/06/08 00:16:57;;;;;;;9.00;1.50;;;;;;;;;;4899305;29;20040;-77
2022/06/08 00:19:24;;;;;;;3.45;1.10;;;;;;;;;;4899003;29;20083;-78
2022/06/08 00:21:50;;;;;;;3.90;1.08;;;;;;;;;;4900062;29;20044;-78
2022/06/08 00:24:18;;;;;;;7.97;1.67;;;;;;;;;;4900469;29;20036;-78
2022/06/08 00:26:44;;;;;;;4.93;1.25;;;;;;;;;;4901346;29;20024;-78
2022/06/08 00:29:10;;;;;;;2.65;1.10;;;;;;;;;;4901095;29;20030;-78
2022/06/08 00:31:37;;;;;;;2.60;1.30;;;;;;;;;;4881765;29;20031;-78
2022/06/08 00:34:03;;;;;;;6.07;1.40;;;;;;;;;;4916243;29;20512;-78
2022/06/08 00:36:29;;;;;;;4.00;1.30;;;;;;;;;;4900939;29;20027;-78
2022/06/08 00:38:56;;;;;;;3.70;1.42;;;;;;;;;;4900529;29;20058;-78
2022/06/08 00:41:33;;;;;;;2.10;1.15;;;;;;;;;;4900917;29;20520;-78
2022/06/08 00:44:02;;;;;;;6.07;1.40;;;;;;;;;;4899262;29;20021;-78
2022/06/08 00:46:28;;;;;;;6.90;1.65;;;;;;;;;;4896370;29;20389;-78
2022/06/08 00:48:57;;;;;;;5.97;1.48;;;;;;;;;;4901464;29;20025;-78
2022/06/08 00:51:23;;;;;;;6.20;1.50;;;;;;;;;;4900622;29;20525;-77
2022/06/08 00:53:58;;;;;;;4.10;1.35;;;;;;;;;;4900743;29;20025;-78
2022/06/08 00:56:28;;;;;;;7.95;1.40;;;;;;;;;;4900798;29;20032;-78
2022/06/08 00:58:54;;;;;;;3.55;1.13;;;;;;;;;;4898286;29;20051;-78
2022/06/08 01:01:21;;;;;;;3.97;1.15;;;;;;;;;;4898489;29;20035;-79
2022/06/08 01:03:47;;;;;;;5.07;1.38;;;;;;;;;;4901355;29;20043;-78
2022/06/08 01:06:15;;;;;;;3.42;1.17;;;;;;;;;;4900453;29;20094;-78
2022/06/08 01:08:46;;;;;;;5.13;1.25;;;;;;;;;;4900687;29;20054;-78
2022/06/08 01:11:16;;;;;;;4.75;1.65;;;;;;;;;;4900423;29;20019;-78
2022/06/08 01:13:44;;;;;;;5.68;1.70;;;;;;;;;;4896563;29;20032;-78
2022/06/08 01:16:11;;;;;;;3.95;1.20;;;;;;;;;;4900100;29;20028;-77
2022/06/08 01:18:38;;;;;;;7.43;1.33;;;;;;;;;;4900225;29;20032;-78
2022/06/08 01:21:23;;;;;;;5.15;1.08;;;;;;;;;;4914955;29;20397;-78
2022/06/08 01:23:50;;;;;;;4.00;1.38;;;;;;;;;;4900343;29;20029;-77
2022/06/08 01:26:23;;;;;;;7.07;1.30;;;;;;;;;;4900303;29;20016;-78
2022/06/08 01:28:55;;;;;;;4.32;1.40;;;;;;;;;;4897329;29;20029;-78
2022/06/08 01:31:29;;;;;;;5.10;1.30;;;;;;;;;;4897936;29;20024;-78
2022/06/08 01:34:01;;;;;;;6.25;1.80;;;;;;;;;;4899652;29;20025;-78
2022/06/08 01:36:33;;;;;;;7.07;1.38;;;;;;;;;;4899568;29;20040;-78
2022/06/08 01:39:03;;;;;;;4.80;1.48;;;;;;;;;;4899949;29;20438;-78
2022/06/08 01:41:48;;;;;;;3.85;1.42;;;;;;;;;;4899933;29;20060;-78
2022/06/08 01:44:34;;;;;;;5.57;1.50;;;;;;;;;;4899884;29;20040;-78
2022/06/08 01:47:10;;;;;;;7.95;1.45;;;;;;;;;;4898477;29;20032;-78
2022/06/08 01:49:43;;;;;;;7.10;1.10;;;;;;;;;;4894165;29;20049;-78
2022/06/08 01:52:09;;;;;;;5.88;1.10;;;;;;;;;;4908081;29;20020;-78
2022/06/08 01:54:47;;;;;;;7.38;1.30;;;;;;;;;;4900242;29;20035;-78
2022/06/08 01:57:22;;;;;;;3.25;1.35;;;;;;;;;;4900165;29;20025;-78
2022/06/08 02:00:07;;;;;;;8.18;1.50;;;;;;;;;;4899588;29;20040;-77
2022/06/08 02:02:33;;;;;;;1.63;1.10;;;;;;;;;;4900026;29;20029;-77
2022/06/08 02:05:02;;;;;;;5.47;1.30;;;;;;;;;;4898366;29;20025;-76
2022/06/08 02:07:32;;;;;;;3.85;1.35;;;;;;;;;;4896733;29;20035;-78
2022/06/08 02:10:14;;;;;;;2.85;1.20;;;;;;;;;;4899335;29;20040;-79
2022/06/08 02:12:42;;;;;;;4.80;1.30;;;;;;;;;;4900053;29;20044;-78
2022/06/08 02:15:16;;;;;;;7.95;1.55;;;;;;;;;;4898391;29;20040;-78
2022/06/08 02:17:51;;;;;;;8.25;1.63;;;;;;;;;;4898523;29;20036;-78
2022/06/08 02:20:22;;;;;;;4.43;1.48;;;;;;;;;;4899723;29;20032;-78
2022/06/08 02:22:52;;;;;;;4.37;1.30;;;;;;;;;;4896695;29;20050;-78
2022/06/08 02:25:47;;;;;;;5.15;1.42;;;;;;;;;;4898281;29;20033;-78
2022/06/08 02:28:20;;;;;;;4.95;1.40;;;;;;;;;;4903248;29;20054;-78
2022/06/08 02:30:49;;;;;;;5.88;1.50;;;;;;;;;;4898598;29;20046;-78
2022/06/08 02:36:08;;;;;;;6.50;1.70;;;;;;;;;;4899540;29;20521;-78
2022/06/08 02:38:37;;;;;;;4.22;1.65;;;;;;;;;;4899708;29;20044;-78
2022/06/08 02:41:07;;;;;;;7.82;1.63;;;;;;;;;;4898693;29;20050;-78
2022/06/08 02:43:36;;;;;;;3.63;1.35;;;;;;;;;;4894767;29;20067;-78
2022/06/08 02:46:09;;;;;;;6.72;1.75;;;;;;;;;;4900352;29;20027;-78
2022/06/08 02:48:35;;;;;;;5.68;1.20;;;;;;;;;;4917359;29;20043;-78
2022/06/08 02:51:02;;;;;;;3.70;1.38;;;;;;;;;;4903218;29;20028;-77
2022/06/08 02:53:31;;;;;;;4.72;1.27;;;;;;;;;;4902861;29;20024;-77
2022/06/08 02:56:04;;;;;;;4.03;1.35;;;;;;;;;;4900867;29;20493;-78
2022/06/08 02:58:39;;;;;;;3.38;1.00;;;;;;;;;;4899055;29;20052;-78
2022/06/08 03:01:10;;;;;;;5.25;1.38;;;;;;;;;;4902067;29;20043;-78
2022/06/08 03:03:37;;;;;;;;;;;;;;;;;;4903465;29;20039;-78
2022/06/08 03:06:07;;;;;;;7.47;1.88;;;;;;;;;;4902622;29;19955;-78
2022/06/08 03:08:42;;;;;;;4.55;1.77;;;;;;;;;;4901329;29;20409;-78
2022/06/08 03:11:10;;;;;;;6.05;1.27;;;;;;;;;;4901796;29;20024;-78
2022/06/08 03:13:49;;;;;;;3.95;1.40;;;;;;;;;;4898602;29;20035;-78
2022/06/08 03:16:30;;;;;;;5.82;1.70;;;;;;;;;;4910940;29;20401;-78
2022/06/08 03:18:56;;;;;;;4.43;1.30;;;;;;;;;;4901600;29;20100;-78
2022/06/08 03:21:22;;;;;;;6.10;1.65;;;;;;;;;;4902425;29;20039;-77
2022/06/08 03:23:49;;;;;;;6.85;1.40;;;;;;;;;;4902392;29;20041;-78
2022/06/08 03:26:16;;;;;;;7.85;1.58;;;;;;;;;;4901813;29;20367;-78
2022/06/08 03:28:43;;;;;;;9.13;1.48;;;;;;;;;;4898413;29;20405;-79
2022/06/08 03:31:09;;;;;;;5.90;1.20;;;;;;;;;;4902377;29;20031;-78
2022/06/08 03:33:35;;;;;;;5.97;1.63;;;;;;;;;;4902309;29;20565;-78
2022/06/08 03:36:02;;;;;;;5.30;1.55;;;;;;;;;;4901933;29;20401;-78
2022/06/08 03:38:28;;;;;;;3.88;1.30;;;;;;;;;;4901817;29;20047;-78
2022/06/08 03:40:54;;;;;;;5.50;1.75;;;;;;;;;;4899293;29;20054;-78
2022/06/08 03:43:21;;;;;;;4.35;1.42;;;;;;;;;;4900362;29;20028;-78
2022/06/08 03:45:49;;;;;;;5.53;1.50;;;;;;;;;;4902468;29;20037;-78
2022/06/08 03:48:16;;;;;;;6.60;1.45;;;;;;;;;;4916701;29;20033;-78
2022/06/08 03:50:43;;;;;;;4.78;1.70;;;;;;;;;;4901687;29;20487;-78
2022/06/08 03:53:15;;;;;;;7.35;1.52;;;;;;;;;;4901510;29;20052;-77
2022/06/08 03:55:42;;;;;;;2.65;1.35;;;;;;;;;;4882738;29;20033;-78
2022/06/08 03:58:08;;;;;;;4.72;1.50;;;;;;;;;;4901520;29;20037;-78
2022/06/08 04:00:36;;;;;;;3.28;1.23;;;;;;;;;;4901362;29;20032;-77
2022/06/08 04:03:04;;;;;;;5.82;1.60;;;;;;;;;;4901662;29;20025;-78
2022/06/08 04:05:30;;;;;;;4.97;1.60;;;;;;;;;;4901440;29;20046;-77
2022/06/08 04:07:57;;;;;;;2.97;1.40;;;;;;;;;;4897466;29;20035;-80
2022/06/08 04:10:23;;;;;;;6.82;1.60;;;;;;;;;;4899649;29;20037;-78
2022/06/08 04:12:50;;;;;;;6.05;1.50;;;;;;;;;;4901961;29;20365;-78
2022/06/08 04:15:41;;;;;;;4.72;1.40;;;;;;;;;;4901401;29;20039;-80
2022/06/08 04:18:02;;;;;;;6.25;1.60;;;;;;;;;;4901186;29;20028;-79
2022/06/08 04:20:29;;;;;;;8.43;1.70;;;;;;;;;;4901271;29;20040;-79
2022/06/08 04:22:55;;;;;;;2.47;1.05;;;;;;;;;;4898997;29;20036;-80
2022/06/08 04:25:21;;;;;;;3.65;1.40;;;;;;;;;;4899212;29;20070;-78
2022/06/08 04:27:48;;;;;;;5.40;1.38;;;;;;;;;;4901966;29;20035;-79
2022/06/08 04:30:14;;;;;;;7.07;1.50;;;;;;;;;;4901122;29;20069;-79
2022/06/08 04:32:41;;;;;;;7.80;1.83;;;;;;;;;;4901038;29;20511;-79
2022/06/08 04:35:08;;;;;;;8.95;1.63;;;;;;;;;;4900456;29;20030;-79
2022/06/08 04:37:37;;;;;;;3.97;1.25;;;;;;;;;;4897338;29;20376;-80
2022/06/08 04:40:08;;;;;;;3.47;1.23;;;;;;;;;;4901181;29;20045;-79
2022/06/08 04:42:34;;;;;;;;;;;;;;;;;;4901374;29;20506;-79
2022/06/08 04:45:01;;;;;;;3.67;1.50;;;;;;;;;;4900865;29;20288;-79
2022/06/08 04:47:27;;;;;;;4.32;1.80;;;;;;;;;;4900708;29;20552;-79
2022/06/08 04:49:54;;;;;;;3.10;1.25;;;;;;;;;;4898745;29;20024;-79
2022/06/08 04:52:20;;;;;;;4.13;1.60;;;;;;;;;;4899053;29;20510;-79
2022/06/08 04:54:46;;;;;;;3.70;1.30;;;;;;;;;;4900893;29;20386;-79
2022/06/08 04:57:13;;;;;;;5.53;1.60;;;;;;;;;;4900829;29;20033;-79
2022/06/08 04:59:40;;;;;;;5.65;1.30;;;;;;;;;;4900616;29;20040;-79
2022/06/08 05:02:07;;;;;;;7.68;1.80;;;;;;;;;;4899957;29;20032;-79
2022/06/08 05:04:33;;;;;;;5.53;1.55;;;;;;;;;;4897351;29;20043;-79
2022/06/08 05:06:59;;;;;;;4.75;1.60;;;;;;;;;;4901025;29;20029;-79
2022/06/08 05:09:26;;;;;;;4.10;1.40;;;;;;;;;;4900122;29;20512;-79
2022/06/08 05:11:52;;;;;;;4.65;1.77;;;;;;;;;;4900524;29;20035;-79
2022/06/08 05:14:19;;;;;;;4.57;1.20;;;;;;;;;;4900342;29;20083;-79
2022/06/08 05:16:45;;;;;;;6.57;2.10;;;;;;;;;;4896769;29;20033;-79
2022/06/08 05:19:11;;;;;;;5.20;1.52;;;;;;;;;;4900029;29;20045;-78
2022/06/08 05:21:38;;;;;;;5.45;1.40;;;;;;;;;;4900479;29;20025;-78
2022/06/08 05:24:04;;;;;;;8.07;1.90;;;;;;;;;;4899014;29;20492;-80
2022/06/08 05:26:31;;;;;;;5.25;1.67;;;;;;;;;;4900278;29;20023;-79
2022/06/08 05:28:57;;;;;;;7.10;1.50;;;;;;;;;;4898419;29;20677;-79
2022/06/08 05:31:23;;;;;;;6.32;1.55;;;;;;;;;;4898009;29;20035;-79
2022/06/08 05:33:50;;;;;;;3.40;1.60;;;;;;;;;;4900220;29;20510;-79
2022/06/08 05:36:16;;;;;;;4.50;1.75;;;;;;;;;;4899704;29;20039;-79
2022/06/08 05:38:43;;;;;;;5.88;1.40;;;;;;;;;;4899548;29;20044;-79
2022/06/08 05:41:09;;;;;;;3.47;1.45;;;;;;;;;;4899717;29;20544;-79
2022/06/08 05:43:35;;;;;;;4.95;1.50;;;;;;;;;;4896246;29;20028;-79
2022/06/08 05:46:02;;;;;;;6.43;1.25;;;;;;;;;;4900744;29;20508;-79
2022/06/08 05:48:28;;;;;;;5.90;1.58;;;;;;;;;;4900295;29;20038;-79
2022/06/08 05:50:54;;;;;;;4.35;1.50;;;;;;;;;;4899757;29;20025;-78
2022/06/08 05:53:21;;;;;;;2.85;1.08;;;;;;;;;;4900159;29;20031;-78
2022/06/08 05:55:48;;;;;;;7.70;1.48;;;;;;;;;;4897187;29;20031;-78
2022/06/08 05:58:14;;;;;;;13.02;1.60;;;;;;;;;;4897870;29;20033;-78
2022/06/08 06:00:42;;;;;;;3.70;1.25;;;;;;;;;;4900613;29;20033;-78
2022/06/08 06:03:08;;;;;;;11.02;1.45;;;;;;;;;;4900037;29;20084;-77
2022/06/08 06:05:34;;;;;;;6.45;1.60;;;;;;;;;;4899703;29;20025;-78
2022/06/08 06:08:01;;;;;;;14.93;1.88;;;;;;;;;;4895423;29;20793;-78
2022/06/08 06:10:28;;;;;;;4.50;1.88;;;;;;;;;;4887043;29;20029;-72
2022/06/08 06:12:55;;;;;;;5.03;1.60;;;;;;;;;;4899806;29;20092;-72
2022/06/08 06:15:22;;;;;;;5.20;1.35;;;;;;;;;;4896581;29;20088;-72
2022/06/08 06:17:48;;;;;;;6.45;1.45;;;;;;;;;;4892589;29;20048;-73
2022/06/08 06:20:15;;;;;;;7.07;1.42;;;;;;;;;;4896624;29;20400;-73
2022/06/08 06:22:42;;;;;;;2.95;1.20;;;;;;;;;;4897451;29;20032;-73
2022/06/08 06:25:09;;;;;;;7.53;1.80;;;;;;;;;;4910549;29;20108;-73
2022/06/08 06:27:35;;;;;;;5.90;1.60;;;;;;;;;;4900586;29;20490;-73
2022/06/08 06:30:02;;;;;;;6.07;1.33;;;;;;;;;;4898792;29;20032;-72
2022/06/08 06:32:29;;;;;;;7.03;1.55;;;;;;;;;;4910080;29;20036;-72
2022/06/08 06:34:58;;;;;;;5.10;1.70;;;;;;;;;;4899463;29;20442;-72
2022/06/08 06:37:25;;;;;;;5.25;1.48;;;;;;;;;;4899072;29;20028;-72
2022/06/08 06:39:52;;;;;;;5.03;1.20;;;;;;;;;;4902781;29;20052;-72
2022/06/08 06:42:19;;;;;;;7.00;1.58;;;;;;;;;;4901831;29;20028;-73
2022/06/08 06:44:46;;;;;;;4.88;1.48;;;;;;;;;;4899703;29;20483;-72
2022/06/08 06:47:12;;;;;;;4.00;1.23;;;;;;;;;;4901178;29;20039;-72
2022/06/08 06:49:39;;;;;;;5.43;1.35;;;;;;;;;;4895122;29;20031;-72
2022/06/08 06:52:05;;;;;;;2.83;1.33;;;;;;;;;;4902129;29;20040;-72
2022/06/08 06:54:32;;;;;;;4.15;1.45;;;;;;;;;;4901366;29;20039;-72
2022/06/08 06:56:59;;;;;;;5.28;1.55;;;;;;;;;;4901537;29;20091;-72
2022/06/08 06:59:25;;;;;;;8.30;1.63;;;;;;;;;;4901496;29;20028;-72
2022/06/08 07:01:51;;;;;;;3.35;1.20;;;;;;;;;;4899082;29;20028;-72
2022/06/08 07:04:18;;;;;;;4.72;1.20;;;;;;;;;;4899210;29;20035;-72
2022/06/08 07:06:44;;;;;;;4.78;1.60;;;;;;;;;;4902068;29;20511;-72
2022/06/08 07:09:11;;;;;;;4.38;1.30;;;;;;;;;;4900879;29;20025;-72
2022/06/08 07:11:40;;;;;;;5.68;1.30;;;;;;;;;;4900892;29;20030;-72
2022/06/08 07:14:08;;;;;;;4.00;1.45;;;;;;;;;;4894374;29;20035;-73
2022/06/08 07:16:34;;;;;;;2.85;1.10;;;;;;;;;;4891544;29;21151;-73
2022/06/08 07:19:01;;;;;;;4.90;1.30;;;;;;;;;;4886296;29;20048;-70
2022/06/08 07:21:27;;;;;;;7.65;2.00;;;;;;;;;;4893653;29;20029;-71
2022/06/08 07:23:55;;;;;;;5.00;1.38;;;;;;;;;;4891771;29;20039;-72
2022/06/08 07:26:24;;;;;;;10.05;1.58;;;;;;;;;;4893437;29;20040;-72
2022/06/08 07:28:52;;;;;;;7.78;2.33;;;;;;;;;;4894243;29;20028;-72
2022/06/08 07:31:19;;;;;;;5.47;1.50;;;;;;;;;;4892196;29;20391;-73
2022/06/08 07:33:51;;;;;;;8.43;1.95;;;;;;;;;;4893432;29;20043;-69
2022/06/08 07:36:18;;;;;;;9.30;2.00;;;;;;;;;;4902627;29;20036;-72
2022/06/08 07:38:44;;;;;;;6.22;1.60;;;;;;;;;;4900430;29;20056;-71
2022/06/08 07:41:11;;;;;;;6.40;1.80;;;;;;;;;;4898201;29;20020;-71
2022/06/08 07:43:38;;;;;;;10.77;2.00;;;;;;;;;;4911124;29;20119;-72
2022/06/08 07:46:05;;;;;;;12.32;1.88;;;;;;;;;;4899448;29;20032;-78
2022/06/08 07:51:16;;;;;;;14.10;1.67;;;;;;;;;;4897914;29;20133;-78
2022/06/08 07:53:43;;;;;;;8.65;1.50;;;;;;;;;;4898817;29;20367;-78
2022/06/08 07:56:10;;;;;;;12.20;2.13;;;;;;;;;;4896651;29;20042;-78
2022/06/08 07:58:36;;;;;;;5.55;1.80;;;;;;;;;;4895937;29;20040;-80
2022/06/08 08:01:03;;;;;;;3.85;1.70;;;;;;;;;;4910381;29;20032;-80
2022/06/08 08:03:29;;;;;;;6.40;1.60;;;;;;;;;;4900632;29;20032;-79
2022/06/08 08:05:55;;;;;;;5.53;2.03;;;;;;;;;;4904417;29;20032;-84
2022/06/08 08:08:22;;;;;;;10.40;2.10;;;;;;;;;;4909399;29;20028;-82
2022/06/08 08:10:48;;;;;;;5.10;1.80;;;;;;;;;;4897251;29;20088;-81
2022/06/08 08:13:15;;;;;;;9.45;2.28;;;;;;;;;;4898782;29;20032;-76
2022/06/08 08:15:43;;;;;;;8.60;2.20;;;;;;;;;;4898214;29;20052;-76
2022/06/08 08:18:10;;;;;;;5.22;2.20;;;;;;;;;;4905315;29;20083;-77
2022/06/08 08:20:37;;;;;;;8.75;2.30;;;;;;;;;;4907809;29;20047;-79
2022/06/08 08:23:04;;;;;;;11.32;2.72;;;;;;;;;;4898455;29;20392;-78
2022/06/08 08:25:30;;;;;;;7.22;2.10;;;;;;;;;;4896546;29;20063;-79
2022/06/08 08:27:58;;;;;;;5.75;1.83;;;;;;;;;;4900802;29;20032;-79
2022/06/08 08:30:26;;;;;;;14.35;2.28;;;;;;;;;;4899575;29;20063;-79
2022/06/08 08:32:53;;;;;;;12.27;1.95;;;;;;;;;;4899713;29;20116;-79
2022/06/08 08:35:21;;;;;;;12.98;2.72;;;;;;;;;;4891831;29;20035;-79
2022/06/08 08:37:47;;;;;;;12.80;2.47;;;;;;;;;;4896049;29;20031;-79
2022/06/08 08:40:34;;;;;;;11.07;1.80;;;;;;;;;;4897814;29;20060;-79
2022/06/08 08:43:01;;;;;;;7.55;2.08;;;;;;;;;;4899981;29;20032;-78
2022/06/08 08:45:31;;;;;;;4.88;1.75;;;;;;;;;;4894453;29;20080;-77
2022/06/08 08:48:09;;;;;;;7.47;2.00;;;;;;;;;;4911940;29;20040;-78
2022/06/08 08:50:40;;;;;;;6.93;2.40;;;;;;;;;;4899238;29;20400;-79
2022/06/08 08:53:07;;;;;;;10.02;2.28;;;;;;;;;;4898877;29;20513;-79
2022/06/08 08:55:39;;;;;;;6.90;2.38;;;;;;;;;;4896546;29;20029;-79
2022/06/08 08:58:08;;;;;;;10.63;2.08;;;;;;;;;;4899564;29;20035;-78
2022/06/08 09:00:42;;;;;;;8.52;2.45;;;;;;;;;;4893366;29;20040;-79
2022/06/08 09:03:15;;;;;;;11.07;3.83;;;;;;;;;;4898315;29;20027;-77
2022/06/08 09:05:42;;;;;;;7.78;2.47;;;;;;;;;;4896311;29;20043;-79
2022/06/08 09:08:12;;;;;;;11.27;2.58;;;;;;;;;;4898138;29;20036;-78
2022/06/08 09:10:39;;;;;;;9.27;2.10;;;;;;;;;;4909549;29;20028;-78
2022/06/08 09:13:06;;;;;;;5.88;2.30;;;;;;;;;;4900008;29;20478;-79
2022/06/08 09:15:54;;;;;;;10.60;2.30;;;;;;;;;;4913642;29;20035;-79
2022/06/08 09:18:30;;;;;;;5.78;2.08;;;;;;;;;;4896401;29;20029;-79
2022/06/08 09:20:57;;;;;;;7.32;1.80;;;;;;;;;;4898591;29;20028;-79
2022/06/08 09:23:38;;;;;;;7.10;2.00;;;;;;;;;;4898279;29;20024;-79
2022/06/08 09:26:16;;;;;;;6.55;1.80;;;;;;;;;;4910017;29;20024;-79
2022/06/08 09:28:43;;;;;;;4.25;1.92;;;;;;;;;;4879449;29;20036;-78
2022/06/08 09:31:26;;;;;;;7.47;2.40;;;;;;;;;;4897970;29;20021;-78
2022/06/08 09:34:23;;;;;;;6.68;2.22;;;;;;;;;;4910982;29;20050;-79
2022/06/08 09:37:11;;;;;;;7.07;2.63;;;;;;;;;;4903857;29;20528;-78
2022/06/08 09:39:39;;;;;;;9.13;2.20;;;;;;;;;;4898933;29;20061;-79
2022/06/08 09:42:18;;;;;;;5.60;2.03;;;;;;;;;;4898996;29;20035;-78
2022/06/08 09:45:04;;;;;;;6.03;2.25;;;;;;;;;;4898305;29;20029;-78
2022/06/08 09:53:32;;;;;;;5.25;2.33;;;;;;;;;;4895019;29;20517;-79
2022/06/08 09:56:01;;;;;;;8.75;2.33;;;;;;;;;;4887052;29;20021;-79
2022/06/08 09:58:28;;;;;;;7.63;2.15;;;;;;;;;;4895367;29;20455;-78
2022/06/08 10:01:01;;;;;;;5.80;2.08;;;;;;;;;;4904353;29;20434;-78
2022/06/08 10:03:44;;;;;;;4.35;1.95;;;;;;;;;;4901710;29;20433;-78
2022/06/08 10:06:36;;;;;;;4.70;1.80;;;;;;;;;;4902318;29;20375;-78
2022/06/08 10:09:02;;;;;;;8.68;2.28;;;;;;;;;;4903145;29;20024;-78
2022/06/08 10:11:41;;;;;;;4.60;1.88;;;;;;;;;;4902016;29;20035;-78
2022/06/08 10:14:15;;;;;;;5.68;1.92;;;;;;;;;;4896765;29;20036;-78
2022/06/08 10:16:45;;;;;;;5.85;2.50;;;;;;;;;;4895812;29;20083;-78
2022/06/08 10:19:16;;;;;;;5.82;3.03;;;;;;;;;;4882501;29;20041;-78
2022/06/08 10:21:44;;;;;;;6.22;2.20;;;;;;;;;;4905256;29;20404;-79
2022/06/08 10:24:16;;;;;;;5.72;2.78;;;;;;;;;;4906753;29;20032;-78
2022/06/08 10:26:50;;;;;;;3.80;1.63;;;;;;;;;;4902353;29;20068;-78
2022/06/08 10:29:16;;;;;;;3.00;1.67;;;;;;;;;;4903092;29;20028;-78
2022/06/08 10:31:49;;;;;;;3.72;2.00;;;;;;;;;;4899473;29;20497;-76
2022/06/08 10:34:20;;;;;;;3.35;1.70;;;;;;;;;;4902577;29;20036;-77
2022/06/08 10:36:51;;;;;;;5.15;2.00;;;;;;;;;;4903371;29;20067;-78
2022/06/08 10:39:17;;;;;;;;;;;;;;;;;;4903550;29;20041;-76
2022/06/08 10:44:36;;;;;;;7.78;1.88;;;;;;;;;;4903417;29;20515;-77
2022/06/08 10:47:28;;;;;;;5.68;1.80;;;;;;;;;;4901920;29;20032;-77
2022/06/08 10:50:15;;;;;;;2.50;1.70;;;;;;;;;;4886059;29;20047;-78
2022/06/08 10:52:48;;;;;;;3.83;1.63;;;;;;;;;;4897970;29;20129;-78
2022/06/08 10:55:18;;;;;;;2.80;1.52;;;;;;;;;;4899505;29;20036;-79
2022/06/08 10:58:02;;;;;;;3.90;1.63;;;;;;;;;;4891141;29;20025;-77
2022/06/08 11:00:43;;;;;;;4.82;1.73;;;;;;;;;;4902414;29;20441;-78
2022/06/08 11:03:29;;;;;;;4.30;1.58;;;;;;;;;;4902448;29;20020;-79
2022/06/08 11:05:55;;;;;;;5.30;1.70;;;;;;;;;;4901809;29;20028;-78
2022/06/08 11:08:25;;;;;;;2.92;1.50;;;;;;;;;;4901829;29;20028;-78
2022/06/08 11:10:58;;;;;;;3.13;1.23;;;;;;;;;;4899093;29;20017;-78
2022/06/08 11:13:24;;;;;;;5.20;1.88;;;;;;;;;;4900282;29;20043;-78
2022/06/08 11:15:54;;;;;;;2.42;1.30;;;;;;;;;;4898059;29;20028;-77
2022/06/08 11:18:23;;;;;;;3.88;1.38;;;;;;;;;;4902032;29;20039;-78
2022/06/08 11:20:56;;;;;;;3.78;1.65;;;;;;;;;;4901003;29;20104;-79
2022/06/08 11:23:55;;;;;;;2.25;1.30;;;;;;;;;;4913110;29;20485;-78
2022/06/08 11:26:24;;;;;;;2.38;1.25;;;;;;;;;;4836197;29;20046;-78
2022/06/08 11:28:59;;;;;;;3.03;1.35;;;;;;;;;;4839198;29;20390;-78
2022/06/08 11:31:28;;;;;;;3.60;1.30;;;;;;;;;;4838426;29;20026;-78
2022/06/08 11:34:13;;;;;;;3.55;1.20;;;;;;;;;;4840462;29;20495;-79
2022/06/08 11:36:52;;;;;;;3.65;1.20;;;;;;;;;;4827695;29;20045;-78
2022/06/08 11:39:26;;;;;;;1.73;1.30;;;;;;;;;;4819830;29;20065;-78
2022/06/08 11:41:58;;;;;;;3.25;1.27;;;;;;;;;;4835491;29;20439;-79
2022/06/08 11:44:27;;;;;;;2.85;1.10;;;;;;;;;;4835838;29;20544;-79
2022/06/08 11:47:02;;;;;;;2.25;1.20;;;;;;;;;;4838649;29;20036;-78
2022/06/08 11:49:29;;;;;;;7.22;1.30;;;;;;;;;;4838790;29;20046;-78
2022/06/08 11:51:55;;;;;;;1.67;1.00;;;;;;;;;;4821015;29;20065;-77
2022/06/08 11:54:26;;;;;;;3.60;0.93;;;;;;;;;;4835141;29;20537;-79
2022/06/08 11:57:02;;;;;;;1.05;0.95;;;;;;;;;;4835878;29;20044;-79
2022/06/08 11:59:29;;;;;;;1.40;1.08;;;;;;;;;;4820243;29;20038;-78
2022/06/08 12:02:00;;;;;;;3.10;1.10;;;;;;;;;;4869841;29;20036;-79
2022/06/08 12:04:29;;;;;;;3.90;1.23;;;;;;;;;;4898339;29;20040;-78
2022/06/08 12:06:56;;;;;;;2.47;1.08;;;;;;;;;;4901964;29;20025;-78
2022/06/08 12:09:26;;;;;;;3.65;1.48;;;;;;;;;;4901089;29;20032;-79
2022/06/08 12:11:54;;;;;;;2.00;1.10;;;;;;;;;;4901047;29;20027;-77
2022/06/08 12:14:32;;;;;;;4.07;1.00;;;;;;;;;;4901227;29;20028;-79
2022/06/08 12:17:01;;;;;;;1.55;0.82;;;;;;;;;;4912962;29;20257;-79
2022/06/08 12:19:30;;;;;;;2.80;1.00;;;;;;;;;;4897820;29;20406;-76
2022/06/08 12:22:16;;;;;;;2.55;0.90;;;;;;;;;;4901336;29;20020;-79
2022/06/08 12:24:43;;;;;;;2.78;1.10;;;;;;;;;;4901511;29;20042;-78
2022/06/08 12:27:15;;;;;;;11.05;0.85;;;;;;;;;;4901070;29;20508;-78
2022/06/08 12:29:52;;;;;;;1.92;1.05;;;;;;;;;;4901171;29;20487;-78
2022/06/08 12:32:18;;;;;;;1.95;1.00;;;;;;;;;;4900656;29;20470;-78
2022/06/08 12:35:10;;;;;;;3.83;1.10;;;;;;;;;;4897133;29;20115;-78
2022/06/08 12:37:46;;;;;;;2.42;0.70;;;;;;;;;;4897087;29;20055;-78
2022/06/08 12:40:16;;;;;;;1.13;0.60;;;;;;;;;;4908450;29;20054;-78
2022/06/08 12:42:51;;;;;;;3.88;0.50;;;;;;;;;;4901009;29;20044;-78
2022/06/08 12:45:33;;;;;;;0.88;0.45;;;;;;;;;;4901341;29;20021;-79
2022/06/08 12:48:00;;;;;;;0.20;0.20;;;;;;;;;;4900660;29;20032;-78
2022/06/08 12:50:29;;;;;;;0.65;0.30;;;;;;;;;;4897788;29;20036;-79
2022/06/08 12:53:02;;;;;;;1.40;0.60;;;;;;;;;;4897704;29;20028;-79
2022/06/08 12:55:29;;;;;;;1.95;0.50;;;;;;;;;;4895054;29;20048;-79
2022/06/08 12:57:55;;;;;;;0.93;0.20;;;;;;;;;;4899538;29;20024;-79
2022/06/08 13:00:24;;;;;;;1.55;0.25;;;;;;;;;;4899989;29;20502;-78
2022/06/08 13:02:51;;;;;;;0.57;0.38;;;;;;;;;;4899750;29;20036;-77
2022/06/08 13:05:22;;;;;;;0.20;0.20;;;;;;;;;;4900696;29;20396;-77
2022/06/08 13:07:49;;;;;;;0.57;0.30;;;;;;;;;;4895936;29;20020;-78
2022/06/08 13:10:16;;;;;;;0.20;0.20;;;;;;;;;;4899389;29;20058;-79
2022/06/08 13:12:47;;;;;;;0.43;0.20;;;;;;;;;;4900236;29;20040;-79
2022/06/08 13:15:18;;;;;;;0.65;0.20;;;;;;;;;;4914431;29;20025;-78
2022/06/08 13:17:45;;;;;;;0.70;0.20;;;;;;;;;;4899005;29;20029;-78
2022/06/08 13:20:17;;;;;;;1.75;0.40;;;;;;;;;;4897725;29;20035;-78
2022/06/08 13:22:43;;;;;;;0.25;0.22;;;;;;;;;;4881497;29;20031;-78
2022/06/08 13:25:13;;;;;;;0.22;0.22;;;;;;;;;;4900355;29;20021;-78
2022/06/08 13:27:39;;;;;;;3.42;0.40;;;;;;;;;;4900291;29;20036;-78
2022/06/08 13:30:06;;;;;;;2.10;0.40;;;;;;;;;;4899673;29;20033;-77
2022/06/08 13:32:32;;;;;;;4.78;0.25;;;;;;;;;;4899829;29;20024;-78
2022/06/08 13:35:02;;;;;;;1.15;0.45;;;;;;;;;;4897209;29;20041;-79
2022/06/08 13:37:34;;;;;;;7.18;0.30;;;;;;;;;;4896554;29;20024;-76
2022/06/08 13:40:00;;;;;;;1.23;0.40;;;;;;;;;;4900199;29;20056;-76
2022/06/08 13:42:30;;;;;;;1.13;0.57;;;;;;;;;;4899952;29;20036;-75
2022/06/08 13:44:56;;;;;;;1.48;0.30;;;;;;;;;;4899554;29;20485;-75
2022/06/08 13:47:35;;;;;;;0.40;0.30;;;;;;;;;;4899644;29;20026;-76
2022/06/08 13:50:17;;;;;;;3.50;0.50;;;;;;;;;;4885447;29;20028;-76
2022/06/08 13:52:44;;;;;;;0.25;0.20;;;;;;;;;;4881240;29;20031;-76
2022/06/08 13:55:15;;;;;;;0.30;0.20;;;;;;;;;;4900080;29;20541;-78
2022/06/08 13:57:41;;;;;;;0.30;0.20;;;;;;;;;;4894171;29;20045;-76
2022/06/08 14:00:08;;;;;;;1.98;0.20;;;;;;;;;;4896746;29;20611;-76
2022/06/08 14:03:08;;;;;;;1.20;0.38;;;;;;;;;;4898497;29;20227;-77
2022/06/08 14:13:52;;;;;;;3.05;0.20;;;;;;;;;;4842949;29;20048;-80
2022/06/08 14:16:19;;;;;;;8.10;0.30;;;;;;;;;;4870898;29;20060;-79
2022/06/08 14:18:48;;;;;;;0.45;0.30;;;;;;;;;;4842782;29;20093;-79
2022/06/08 14:21:15;;;;;;;0.20;0.20;;;;;;;;;;4858999;29;20057;-81
2022/06/08 14:23:44;;;;;;;2.05;0.30;;;;;;;;;;4858198;29;20028;-79
2022/06/08 14:26:12;;;;;;;5.00;0.30;;;;;;;;;;4858149;29;20037;-81
2022/06/08 14:28:39;;;;;;;1.75;0.32;;;;;;;;;;4855326;29;20037;-80
2022/06/08 14:31:06;;;;;;;2.45;0.30;;;;;;;;;;4859896;29;20477;-79
2022/06/08 14:33:35;;;;;;;2.67;0.30;;;;;;;;;;4858158;29;20042;-79
2022/06/08 14:36:01;;;;;;;4.18;0.40;;;;;;;;;;4859133;29;20026;-79
2022/06/08 14:38:31;;;;;;;0.90;0.35;;;;;;;;;;4858959;29;20181;-79
2022/06/08 14:40:59;;;;;;;1.38;0.40;;;;;;;;;;4865114;29;20041;-79
2022/06/08 14:43:26;;;;;;;0.45;0.35;;;;;;;;;;4879728;29;20035;-79
2022/06/08 14:45:53;;;;;;;3.10;0.40;;;;;;;;;;4882425;29;20052;-78
2022/06/08 14:48:22;;;;;;;0.90;0.50;;;;;;;;;;4883089;29;20521;-78
2022/06/08 14:50:49;;;;;;;1.15;0.40;;;;;;;;;;4881815;29;20037;-79
2022/06/08 14:53:17;;;;;;;2.97;0.40;;;;;;;;;;4872853;29;20037;-80
2022/06/08 14:58:29;;;;;;;0.30;0.30;;;;;;;;;;4888643;29;20031;-81
2022/06/08 15:00:56;;;;;;;1.52;0.50;;;;;;;;;;4882217;29;20112;-80
2022/06/08 15:03:23;;;;;;;1.75;0.40;;;;;;;;;;4882638;29;20025;-81
2022/06/08 15:05:50;;;;;;;0.77;0.40;;;;;;;;;;4882896;29;20032;-80
2022/06/08 15:08:18;;;;;;;1.65;0.30;;;;;;;;;;4877065;29;20219;-81
2022/06/08 15:13:33;;;;;;;3.35;0.50;;;;;;;;;;4879833;29;20043;-79
2022/06/08 15:16:00;;;;;;;1.10;0.40;;;;;;;;;;4882313;29;20560;-79
2022/06/08 15:18:30;;;;;;;2.40;0.40;;;;;;;;;;4880736;29;20413;-79
2022/06/08 15:20:59;;;;;;;2.83;0.40;;;;;;;;;;4882984;29;20563;-81
2022/06/08 15:23:26;;;;;;;0.50;0.45;;;;;;;;;;4897755;29;20031;-79
2022/06/08 15:25:54;;;;;;;0.40;0.40;;;;;;;;;;4880267;29;20082;-80
2022/06/08 15:28:25;;;;;;;2.78;0.50;;;;;;;;;;4881637;29;20025;-80